Time;durP1;ratioP1;P1;durP2;ratioP2;P2;SDS_P1;SDS_P2;PMS_P1;PMS_P2;Temp;Humidity;BMP_temperature;BMP_pressure;BME280_temperature;BME280_humidity;BME280_pressure;Samples;Min_cycle;Max_cycle;Signal;HPM_P1;HPM_P2
2022/01/01 00:00:09;;;;;;;32.67;17.65;;;;;;;9.15;90.30;98030.04;1736405;82;20970;-57
2022/01/01 00:02:37;;;;;;;35.08;20.60;;;;;;;9.12;90.45;98031.91;1734675;81;20930;-58
2022/01/01 00:05:06;;;;;;;20.25;13.25;;;;;;;9.10;90.00;98028.13;1736265;82;20953;-58
2022/01/01 00:07:34;;;;;;;24.25;12.75;;;;;;;9.05;90.69;98032.17;1736567;82;21476;-57
2022/01/01 00:10:02;;;;;;;24.98;15.63;;;;;;;9.02;90.95;98028.13;1736595;82;20985;-58
2022/01/01 00:12:29;;;;;;;21.77;14.70;;;;;;;9.01;90.74;98027.05;1736591;82;20989;-58
2022/01/01 00:14:56;;;;;;;24.75;12.28;;;;;;;8.98;91.35;98027.59;1736458;82;21418;-58
2022/01/01 00:17:23;;;;;;;18.73;11.78;;;;;;;8.99;91.67;98025.16;1736545;82;20981;-58
2022/01/01 00:19:50;;;;;;;16.67;11.28;;;;;;;8.98;91.76;98020.30;1736608;82;20957;-58
2022/01/01 00:22:17;;;;;;;17.32;11.38;;;;;;;9.00;91.80;98021.38;1736514;82;20949;-58
2022/01/01 00:24:44;;;;;;;20.55;13.70;;;;;;;9.00;91.89;98026.23;1736576;82;20973;-58
2022/01/01 00:27:10;;;;;;;21.17;14.15;;;;;;;9.01;91.99;98018.39;1736580;82;22042;-58
2022/01/01 00:29:37;;;;;;;36.65;23.83;;;;;;;9.00;92.18;98026.78;1736580;82;21375;-58
2022/01/01 00:32:05;;;;;;;20.80;12.82;;;;;;;9.01;91.76;98025.69;1727443;82;21456;-58
2022/01/01 00:34:35;;;;;;;22.80;16.93;;;;;;;8.98;92.02;98030.30;1717720;83;21521;-58
2022/01/01 00:37:02;;;;;;;20.75;15.68;;;;;;;8.98;92.04;98038.41;1739771;82;20988;-57
2022/01/01 00:39:29;;;;;;;24.02;13.13;;;;;;;8.98;92.16;98039.75;1777697;80;21584;-58
2022/01/01 00:41:57;;;;;;;23.22;11.33;;;;;;;8.91;92.78;98026.50;1763904;80;37362;-58
2022/01/01 00:44:24;;;;;;;21.52;13.98;;;;;;;8.98;92.56;98038.41;1778017;80;21021;-57
2022/01/01 00:46:51;;;;;;;30.15;15.78;;;;;;;8.94;92.44;98034.06;1758771;80;21174;-58
2022/01/01 00:49:18;;;;;;;21.02;13.00;;;;;;;8.90;92.82;98041.64;1751121;81;21004;-57
2022/01/01 00:51:45;;;;;;;25.35;13.53;;;;;;;8.89;92.71;98038.12;1750085;80;21472;-58
2022/01/01 00:54:12;;;;;;;25.20;17.95;;;;;;;8.86;93.09;98048.64;1740500;81;20973;-58
2022/01/01 00:56:39;;;;;;;24.65;16.32;;;;;;;8.85;92.96;98028.91;1772416;80;21457;-58
2022/01/01 00:59:05;;;;;;;21.93;14.78;;;;;;;8.86;92.98;98052.69;1745862;81;21381;-58
2022/01/01 01:01:32;;;;;;;22.42;12.73;;;;;;;8.85;93.29;98048.38;1748384;81;20973;-58
2022/01/01 01:04:00;;;;;;;29.10;16.02;;;;;;;8.87;93.60;98044.86;1751796;82;21572;-58
2022/01/01 01:06:26;;;;;;;21.05;12.00;;;;;;;8.88;93.25;98057.28;1748031;81;20903;-58
2022/01/01 01:08:57;;;;;;;17.82;11.45;;;;;;;8.83;92.95;98048.64;1777708;80;21001;-58
2022/01/01 01:11:22;;;;;;;56.08;22.05;;;;;;;8.83;93.11;98047.29;1766175;80;21426;-58
2022/01/01 01:13:57;;;;;;;10.58;6.80;;;;;;;8.85;93.54;98055.94;1777876;80;21010;-58
2022/01/01 01:16:18;;;;;;;12.15;7.78;;;;;;;8.89;94.21;98053.53;1776554;80;22129;-58
2022/01/01 01:18:45;;;;;;;13.30;7.78;;;;;;;8.97;94.03;98063.78;1744868;82;20946;-58
2022/01/01 01:21:12;;;;;;;10.70;6.72;;;;;;;9.00;94.58;98061.38;1749004;81;20965;-58
2022/01/01 01:23:38;;;;;;;10.23;6.90;;;;;;;9.07;94.31;98057.61;1742493;80;21022;-58
2022/01/01 01:26:07;;;;;;;10.48;7.25;;;;;;;9.09;94.28;98055.44;1744945;81;21342;-58
2022/01/01 01:28:35;;;;;;;11.90;5.67;;;;;;;9.12;94.90;98056.23;1747841;80;20948;-58
2022/01/01 01:31:02;;;;;;;16.30;8.48;;;;;;;9.18;95.29;98048.41;1743848;81;20974;-58
2022/01/01 01:33:29;;;;;;;9.98;5.30;;;;;;;9.20;95.67;98061.11;1740656;81;21441;-58
2022/01/01 01:35:56;;;;;;;9.10;3.42;;;;;;;9.20;95.67;98061.11;1766302;80;20977;-58
2022/01/01 01:38:22;;;;;;;5.85;3.22;;;;;;;9.27;95.97;98057.06;1752149;81;20995;-58
2022/01/01 01:40:49;;;;;;;5.37;2.72;;;;;;;9.27;95.97;98057.06;1754797;80;22131;-59
2022/01/01 01:43:16;;;;;;;6.58;4.00;;;;;;;9.50;95.48;98056.26;1740302;81;20993;-58
2022/01/01 01:45:44;;;;;;;5.00;3.08;;;;;;;9.50;95.48;98056.26;1769888;80;21417;-58
2022/01/01 01:48:11;;;;;;;5.28;2.55;;;;;;;9.52;95.48;98067.07;1763016;80;20984;-58
2022/01/01 01:50:38;;;;;;;5.60;3.12;;;;;;;9.64;95.17;98074.89;1754014;80;21010;-58
2022/01/01 01:53:06;;;;;;;4.17;2.70;;;;;;;9.70;95.18;98076.52;1745999;81;21977;-58
2022/01/01 01:55:33;;;;;;;5.42;3.42;;;;;;;9.74;94.99;98078.13;1736405;82;20969;-58
2022/01/01 01:58:00;;;;;;;5.12;2.98;;;;;;;9.75;94.86;98086.00;1736880;82;21031;-58
2022/01/01 02:02:54;;;;;;;6.47;3.37;;;;;;;9.84;94.74;98081.66;1736404;82;21004;-58
2022/01/01 02:05:21;;;;;;;5.45;3.17;;;;;;;9.87;94.70;98093.82;1736607;82;21400;-58
2022/01/01 02:07:48;;;;;;;4.60;2.80;;;;;;;9.93;94.36;98101.41;1751625;80;21420;-58
2022/01/01 02:10:16;;;;;;;5.20;3.42;;;;;;;9.92;94.34;98099.23;1747069;81;21062;-57
2022/01/01 02:12:48;;;;;;;5.70;4.03;;;;;;;9.95;94.30;98105.45;1720636;82;20969;-58
2022/01/01 02:15:25;;;;;;;4.90;3.02;;;;;;;9.97;94.21;98108.69;1746984;81;21019;-58
2022/01/01 02:17:40;;;;;;;6.65;4.20;;;;;;;9.98;94.16;98114.37;1747935;81;22154;-58
2022/01/01 02:20:18;;;;;;;5.10;2.98;;;;;;;9.98;94.06;98124.39;1752149;82;21381;-58
2022/01/01 02:22:50;;;;;;;5.95;3.37;;;;;;;9.97;94.26;98122.77;1732773;81;21048;-58
2022/01/01 02:25:18;;;;;;;4.58;3.52;;;;;;;9.99;94.09;98122.75;1736471;82;21117;-58
2022/01/01 02:27:45;;;;;;;7.15;3.58;;;;;;;9.96;94.10;98132.78;1756550;80;21020;-58
2022/01/01 02:30:14;;;;;;;8.25;3.47;;;;;;;9.94;94.24;98132.80;1752044;82;21411;-58
2022/01/01 02:32:42;;;;;;;5.53;2.10;;;;;;;9.98;94.15;98136.56;1736712;82;21005;-58
2022/01/01 02:35:10;;;;;;;6.17;3.20;;;;;;;10.03;94.15;98136.03;1736420;82;21636;-58
2022/01/01 02:37:38;;;;;;;4.47;2.50;;;;;;;9.96;94.16;98138.20;1736654;82;20969;-58
2022/01/01 02:40:07;;;;;;;6.45;3.35;;;;;;;9.97;94.04;98145.23;1736478;82;20965;-58
2022/01/01 02:42:34;;;;;;;4.17;2.50;;;;;;;9.98;93.96;98143.34;1736452;82;22090;-58
2022/01/01 02:45:06;;;;;;;3.80;1.90;;;;;;;9.99;93.99;98151.72;1752128;81;20983;-58
2022/01/01 02:47:30;;;;;;;4.70;1.92;;;;;;;9.95;94.29;98147.95;1761404;80;20980;-58
2022/01/01 02:49:57;;;;;;;3.12;1.90;;;;;;;9.92;94.31;98161.50;1753464;80;20949;-58
2022/01/01 02:52:24;;;;;;;4.33;2.50;;;;;;;9.91;94.43;98166.61;1712023;82;21421;-58
2022/01/01 02:54:51;;;;;;;3.55;2.27;;;;;;;9.92;94.60;98162.84;1777802;80;21353;-58
2022/01/01 02:57:18;;;;;;;3.33;1.70;;;;;;;9.92;94.52;98167.45;1762926;80;21040;-58
2022/01/01 02:59:45;;;;;;;2.35;1.67;;;;;;;9.89;94.47;98164.19;1777818;80;20982;-58
2022/01/01 03:02:11;;;;;;;4.22;1.87;;;;;;;9.88;94.66;98176.09;1754853;80;20988;-58
2022/01/01 03:04:38;;;;;;;3.85;2.35;;;;;;;9.90;94.44;98174.47;1745667;81;21060;-58
2022/01/01 03:07:06;;;;;;;4.42;2.58;;;;;;;9.92;94.44;98170.97;1760577;80;21422;-58
2022/01/01 03:09:36;;;;;;;4.92;2.85;;;;;;;9.94;94.50;98173.40;1778121;80;21522;-58
2022/01/01 03:12:09;;;;;;;4.45;2.62;;;;;;;9.97;94.18;98170.95;1760179;80;21004;-58
2022/01/01 03:14:36;;;;;;;4.87;2.60;;;;;;;10.00;93.97;98166.88;1751776;82;20925;-58
2022/01/01 03:17:07;;;;;;;4.12;2.65;;;;;;;9.95;94.04;98178.53;1752073;80;21000;-57
2022/01/01 03:19:34;;;;;;;4.45;2.62;;;;;;;9.95;94.20;98183.95;1752184;81;21529;-58
2022/01/01 03:22:01;;;;;;;4.55;2.58;;;;;;;9.91;94.83;98176.08;1760133;80;20997;-58
2022/01/01 03:24:28;;;;;;;3.42;2.20;;;;;;;9.92;94.24;98182.34;1777920;80;20974;-58
2022/01/01 03:26:54;;;;;;;3.42;2.05;;;;;;;9.89;94.11;98176.36;1759782;80;21406;-58
2022/01/01 03:29:21;;;;;;;3.72;2.05;;;;;;;9.90;94.31;98182.05;1752385;81;20980;-57
2022/01/01 03:31:48;;;;;;;3.20;2.33;;;;;;;9.89;94.32;98182.31;1752831;80;21373;-58
2022/01/01 03:34:15;;;;;;;3.62;1.87;;;;;;;9.87;94.59;98184.49;1745569;81;20957;-57
2022/01/01 03:36:42;;;;;;;3.25;2.30;;;;;;;9.87;94.52;98182.59;1757029;80;20925;-58
2022/01/01 03:39:09;;;;;;;3.52;2.37;;;;;;;9.89;94.34;98193.14;1752127;81;20952;-58
2022/01/01 03:41:37;;;;;;;3.10;2.10;;;;;;;9.85;94.54;98186.66;1755166;80;21519;-58
2022/01/01 03:44:04;;;;;;;5.55;2.95;;;;;;;9.86;94.61;98192.34;1745695;81;20946;-58
2022/01/01 03:46:31;;;;;;;5.22;2.70;;;;;;;9.89;94.37;98197.20;1747528;80;21011;-58
2022/01/01 03:48:58;;;;;;;3.98;2.62;;;;;;;9.94;94.12;98200.47;1767787;80;20967;-58
2022/01/01 03:51:25;;;;;;;4.67;2.47;;;;;;;9.96;94.01;98193.69;1762899;80;20973;-58
2022/01/01 03:53:52;;;;;;;3.55;2.60;;;;;;;9.95;94.20;98200.19;1752159;82;21435;-58
2022/01/01 03:56:19;;;;;;;6.20;2.62;;;;;;;9.97;93.94;98203.97;1755719;80;21283;-57
2022/01/01 03:58:45;;;;;;;3.10;2.30;;;;;;;10.00;93.98;98215.09;1752233;82;20973;-57
2022/01/01 04:01:12;;;;;;;3.95;2.30;;;;;;;9.96;94.10;98217.24;1757836;80;21004;-57
2022/01/01 04:03:39;;;;;;;2.92;1.80;;;;;;;9.99;94.10;98218.05;1777986;80;21441;-58
2022/01/01 04:06:06;;;;;;;3.12;1.77;;;;;;;9.99;94.01;98212.09;1769187;80;20922;-58
2022/01/01 04:08:33;;;;;;;3.62;1.85;;;;;;;10.04;93.97;98215.35;1752190;80;21384;-58
2022/01/01 04:11:00;;;;;;;3.55;1.70;;;;;;;10.08;93.86;98220.48;1753388;80;20984;-58
2022/01/01 04:13:27;;;;;;;1.57;1.17;;;;;;;10.06;93.75;98224.81;1777776;80;21485;-58
2022/01/01 04:15:54;;;;;;;2.62;1.77;;;;;;;9.98;93.98;98229.42;1755448;80;21550;-58
2022/01/01 04:18:37;;;;;;;2.12;1.30;;;;;;;10.01;94.09;98220.77;1752236;81;21023;-58
2022/01/01 04:20:55;;;;;;;3.60;1.82;;;;;;;10.01;93.84;98236.20;1752164;80;22101;-57
2022/01/01 04:23:23;;;;;;;2.62;1.60;;;;;;;9.94;94.18;98227.53;1752120;80;20976;-58
2022/01/01 04:25:50;;;;;;;2.60;1.40;;;;;;;10.00;93.90;98227.79;1755270;80;20977;-57
2022/01/01 04:28:17;;;;;;;3.58;1.62;;;;;;;10.01;93.90;98235.66;1752366;81;21004;-58
2022/01/01 04:30:44;;;;;;;2.55;1.85;;;;;;;10.01;93.90;98241.63;1749773;80;21017;-58
2022/01/01 04:33:11;;;;;;;2.72;1.85;;;;;;;10.00;93.77;98231.34;1749586;82;21291;-58
2022/01/01 04:35:38;;;;;;;3.92;2.00;;;;;;;10.03;93.81;98235.39;1751839;81;20980;-58
2022/01/01 04:38:10;;;;;;;4.35;2.45;;;;;;;10.02;93.84;98248.11;1749573;80;21535;-57
2022/01/01 04:40:34;;;;;;;1.92;1.40;;;;;;;10.02;93.97;98245.95;1743138;81;21846;-58
2022/01/01 04:43:00;;;;;;;2.47;1.72;;;;;;;10.08;93.78;98232.66;1752268;82;20979;-58
2022/01/01 04:45:27;;;;;;;3.47;1.60;;;;;;;10.05;93.78;98241.34;1752016;81;21974;-57
2022/01/01 04:47:54;;;;;;;2.98;1.72;;;;;;;10.06;93.67;98235.64;1748651;82;21069;-58
2022/01/01 04:50:21;;;;;;;2.55;1.60;;;;;;;10.08;93.75;98247.55;1743493;81;21036;-58
2022/01/01 04:52:48;;;;;;;4.20;1.98;;;;;;;10.07;93.60;98252.16;1744141;82;21071;-57
2022/01/01 04:55:15;;;;;;;3.35;1.87;;;;;;;10.10;93.60;98245.41;1745362;81;21146;-58
2022/01/01 04:57:42;;;;;;;3.00;1.60;;;;;;;10.10;93.55;98249.47;1771298;80;21324;-58
2022/01/01 05:00:10;;;;;;;2.80;1.87;;;;;;;10.11;93.41;98252.45;1777968;80;20953;-57
2022/01/01 05:02:37;;;;;;;1.90;1.30;;;;;;;10.10;93.54;98254.89;1772965;80;21352;-58
2022/01/01 05:05:06;;;;;;;3.98;2.25;;;;;;;10.15;93.29;98253.52;1777666;80;21382;-58
2022/01/01 05:07:33;;;;;;;3.42;2.00;;;;;;;10.14;93.11;98250.00;1753379;80;21495;-58
2022/01/01 05:10:00;;;;;;;2.77;1.95;;;;;;;10.12;93.16;98253.53;1745147;81;21453;-58
2022/01/01 05:12:27;;;;;;;3.17;1.52;;;;;;;10.14;93.26;98250.00;1753819;80;20945;-58
2022/01/01 05:14:54;;;;;;;3.05;1.72;;;;;;;10.17;93.27;98247.31;1752019;81;20980;-57
2022/01/01 05:17:20;;;;;;;2.60;1.50;;;;;;;10.17;93.17;98249.47;1751768;80;20963;-57
2022/01/01 05:19:47;;;;;;;3.00;1.85;;;;;;;10.17;93.11;98241.89;1752221;81;20941;-57
2022/01/01 05:22:14;;;;;;;1.92;1.42;;;;;;;10.17;93.13;98242.70;1751890;80;21335;-58
2022/01/01 05:24:41;;;;;;;1.55;1.10;;;;;;;10.20;93.03;98258.13;1752020;81;20981;-58
2022/01/01 05:27:08;;;;;;;3.72;1.45;;;;;;;10.22;93.00;98260.86;1758504;80;20994;-58
2022/01/01 05:29:35;;;;;;;2.35;1.35;;;;;;;10.22;92.89;98254.09;1752285;81;20952;-58
2022/01/01 05:32:02;;;;;;;2.65;1.50;;;;;;;10.20;92.74;98253.53;1756499;80;21296;-57
2022/01/01 05:34:29;;;;;;;5.50;2.10;;;;;;;10.21;92.84;98256.50;1745352;81;21405;-57
2022/01/01 05:36:56;;;;;;;2.95;2.65;;;;;;;10.24;92.70;98261.94;1749907;80;20956;-57
2022/01/01 05:39:23;;;;;;;3.62;2.33;;;;;;;10.25;92.49;98256.25;1752321;81;20992;-57
2022/01/01 05:41:54;;;;;;;1.87;1.10;;;;;;;10.25;92.53;98267.08;1754481;80;21008;-57
2022/01/01 05:44:18;;;;;;;2.30;1.30;;;;;;;10.26;92.57;98267.38;1745074;81;21454;-58
2022/01/01 05:46:45;;;;;;;1.37;1.10;;;;;;;10.27;92.53;98267.64;1752133;80;21380;-58
2022/01/01 05:49:12;;;;;;;2.52;1.30;;;;;;;10.26;92.59;98274.15;1751006;81;20986;-58
2022/01/01 05:51:39;;;;;;;1.67;1.10;;;;;;;10.25;92.69;98271.69;1750213;80;20961;-58
2022/01/01 05:54:06;;;;;;;2.12;1.27;;;;;;;10.23;92.43;98274.67;1752413;81;20969;-58
2022/01/01 05:56:33;;;;;;;1.55;0.88;;;;;;;10.19;92.85;98284.41;1750302;81;20980;-58
2022/01/01 05:58:59;;;;;;;1.67;1.20;;;;;;;10.19;92.77;98281.70;1752072;82;21591;-58
2022/01/01 06:01:26;;;;;;;2.08;1.87;;;;;;;10.18;92.59;98283.59;1746260;81;21005;-58
2022/01/01 06:03:53;;;;;;;1.72;1.27;;;;;;;10.17;92.69;98281.16;1745514;81;21483;-58
2022/01/01 06:06:20;;;;;;;1.57;0.90;;;;;;;10.16;92.75;98293.86;1742315;81;20989;-58
2022/01/01 06:08:47;;;;;;;3.80;2.33;;;;;;;10.15;92.91;98301.72;1740555;82;20945;-58
2022/01/01 06:11:14;;;;;;;140.37;60.90;;;;;;;10.17;93.05;98296.87;1742404;81;21401;-58
2022/01/01 06:13:41;;;;;;;75.20;30.15;;;;;;;10.17;93.05;98296.87;1752097;82;20973;-58
2022/01/01 06:16:08;;;;;;;55.38;21.77;;;;;;;10.21;92.89;98297.67;1751661;80;21405;-58
2022/01/01 06:18:35;;;;;;;63.10;24.05;;;;;;;10.21;92.87;98307.15;1745733;81;21060;-58
2022/01/01 06:21:03;;;;;;;156.78;61.18;;;;;;;10.22;92.77;98305.55;1743570;81;20984;-58
2022/01/01 06:23:31;;;;;;;329.57;119.05;;;;;;;10.21;92.92;98295.77;1778298;80;21351;-58
2022/01/01 06:25:58;;;;;;;255.83;89.30;;;;;;;10.24;92.91;98307.98;1768833;80;20964;-58
2022/01/01 06:28:24;;;;;;;279.13;101.85;;;;;;;10.27;92.75;98307.46;1752397;82;20952;-58
2022/01/01 06:30:51;;;;;;;252.95;97.12;;;;;;;10.24;92.92;98317.46;1736500;82;21084;-58
2022/01/01 06:33:20;;;;;;;170.40;72.92;;;;;;;10.26;92.85;98338.34;1736862;82;21005;-58
2022/01/01 06:35:48;;;;;;;145.92;47.95;;;;;;;10.24;92.92;98325.58;1736886;81;20946;-58
2022/01/01 06:38:15;;;;;;;46.60;21.40;;;;;;;10.29;92.69;98346.73;1736739;82;20954;-58
2022/01/01 06:40:43;;;;;;;28.30;11.63;;;;;;;10.26;92.74;98334.28;1736471;82;21033;-58
2022/01/01 06:43:12;;;;;;;58.17;34.03;;;;;;;10.26;92.66;98347.27;1736512;82;20993;-58
2022/01/01 06:45:39;;;;;;;14.75;9.95;;;;;;;10.22;92.95;98343.98;1736488;82;20919;-58
2022/01/01 06:48:06;;;;;;;5.80;4.17;;;;;;;10.22;92.75;98347.52;1740083;82;21253;-58
2022/01/01 06:50:34;;;;;;;7.15;5.12;;;;;;;10.21;93.05;98348.58;1742918;82;20969;-58
2022/01/01 06:53:00;;;;;;;2.85;1.77;;;;;;;10.25;92.80;98352.39;1752006;80;20989;-58
2022/01/01 06:55:27;;;;;;;4.85;3.45;;;;;;;10.21;92.64;98356.70;1747229;81;21007;-58
2022/01/01 06:57:54;;;;;;;5.58;3.75;;;;;;;10.23;92.64;98359.98;1715701;82;21035;-58
2022/01/01 07:00:21;;;;;;;3.08;2.15;;;;;;;10.27;92.52;98364.34;1746445;80;21460;-58
2022/01/01 07:02:48;;;;;;;4.00;2.58;;;;;;;10.27;92.06;98364.34;1772118;80;21024;-58
2022/01/01 07:05:15;;;;;;;4.17;2.62;;;;;;;10.33;92.20;98377.59;1776847;80;21438;-58
2022/01/01 07:07:42;;;;;;;3.22;2.27;;;;;;;10.35;92.12;98358.39;1740976;81;21430;-58
2022/01/01 07:10:11;;;;;;;3.45;2.37;;;;;;;10.36;91.91;98378.97;1777976;80;20961;-58
2022/01/01 07:12:38;;;;;;;3.17;1.92;;;;;;;10.38;91.92;98372.73;1759446;80;21678;-58
2022/01/01 07:15:06;;;;;;;2.87;2.42;;;;;;;10.41;91.83;98364.87;1746963;80;20948;-58
2022/01/01 07:17:33;;;;;;;4.92;3.50;;;;;;;10.37;91.43;98378.70;1751504;82;20984;-58
2022/01/01 07:20:00;;;;;;;3.95;2.20;;;;;;;10.40;91.62;98386.81;1752104;82;21020;-58
2022/01/01 07:22:27;;;;;;;4.95;2.70;;;;;;;10.40;91.64;98383.56;1741015;82;20966;-57
2022/01/01 07:24:54;;;;;;;6.35;4.05;;;;;;;10.41;91.80;98390.61;1740237;81;21285;-58
2022/01/01 07:27:20;;;;;;;9.65;7.65;;;;;;;10.42;91.52;98394.13;1741780;81;20973;-58
2022/01/01 07:29:47;;;;;;;4.00;3.15;;;;;;;10.42;91.55;98401.74;1745840;81;20922;-58
2022/01/01 07:32:14;;;;;;;7.05;4.60;;;;;;;10.45;91.45;98396.31;1743905;81;20989;-58
2022/01/01 07:34:41;;;;;;;4.95;3.60;;;;;;;10.45;91.37;98401.73;1745406;81;21496;-58
2022/01/01 07:37:08;;;;;;;6.47;4.22;;;;;;;10.49;91.24;98402.00;1748913;81;20902;-58
2022/01/01 07:39:35;;;;;;;6.67;4.97;;;;;;;10.47;91.29;98407.69;1736889;82;21017;-57
2022/01/01 07:42:02;;;;;;;4.30;3.10;;;;;;;10.49;91.08;98404.70;1727812;82;20957;-58
2022/01/01 07:44:29;;;;;;;4.08;2.70;;;;;;;10.50;91.05;98414.45;1717876;83;20944;-57
2022/01/01 07:46:56;;;;;;;6.22;3.52;;;;;;;10.56;90.50;98407.42;1717733;83;21004;-58
2022/01/01 07:49:23;;;;;;;20.97;11.83;;;;;;;10.56;90.71;98423.69;1738834;82;21482;-58
2022/01/01 07:51:50;;;;;;;10.08;6.60;;;;;;;10.56;89.96;98406.61;1736787;82;20984;-58
2022/01/01 07:54:17;;;;;;;5.45;3.52;;;;;;;10.61;90.30;98415.57;1736666;82;20997;-58
2022/01/01 07:56:43;;;;;;;6.00;4.55;;;;;;;10.63;89.59;98419.36;1732932;82;21024;-57
2022/01/01 07:59:10;;;;;;;8.68;6.12;;;;;;;10.65;89.93;98412.58;1718139;83;21009;-57
2022/01/01 08:01:37;;;;;;;45.70;22.62;;;;;;;10.69;90.00;98427.77;1728290;82;22034;-57
2022/01/01 08:04:04;;;;;;;10.72;6.60;;;;;;;10.70;89.97;98424.79;1736272;82;21418;-58
2022/01/01 08:06:32;;;;;;;19.67;12.95;;;;;;;10.66;89.58;98429.11;1731189;81;21051;-58
2022/01/01 08:08:58;;;;;;;33.02;16.85;;;;;;;10.71;89.56;98435.09;1736737;82;21052;-58
2022/01/01 08:11:25;;;;;;;29.18;18.55;;;;;;;10.66;89.72;98437.23;1736265;82;21100;-57
2022/01/01 08:13:53;;;;;;;33.38;20.12;;;;;;;10.65;89.83;98429.38;1736716;82;21375;-57
2022/01/01 08:16:21;;;;;;;13.45;6.55;;;;;;;10.64;89.90;98430.47;1735842;82;20959;-57
2022/01/01 08:18:48;;;;;;;13.62;8.83;;;;;;;10.63;89.85;98438.33;1717955;83;20944;-57
2022/01/01 08:21:15;;;;;;;8.03;6.60;;;;;;;10.61;89.92;98439.15;1723864;81;20954;-57
2022/01/01 08:23:42;;;;;;;5.87;4.60;;;;;;;10.58;90.20;98438.31;1749848;80;21457;-57
2022/01/01 08:26:09;;;;;;;5.80;4.80;;;;;;;10.58;90.01;98440.48;1749736;79;21488;-58
2022/01/01 08:28:36;;;;;;;9.35;6.25;;;;;;;10.59;90.34;98446.17;1742324;80;21453;-58
2022/01/01 08:31:03;;;;;;;7.95;4.60;;;;;;;10.56;90.36;98453.48;1739840;81;20991;-57
2022/01/01 08:33:29;;;;;;;4.25;2.87;;;;;;;10.55;90.54;98460.00;1720504;83;21113;-58
2022/01/01 08:35:56;;;;;;;8.68;7.37;;;;;;;10.52;90.70;98452.41;1747129;81;20956;-57
2022/01/01 08:38:23;;;;;;;10.55;8.98;;;;;;;10.53;90.61;98455.39;1719884;82;21434;-57
2022/01/01 08:40:50;;;;;;;10.00;8.40;;;;;;;10.52;90.76;98452.41;1750315;80;21442;-57
2022/01/01 08:43:17;;;;;;;10.32;5.40;;;;;;;10.52;90.56;98446.19;1752121;80;21028;-58
2022/01/01 08:45:44;;;;;;;7.85;5.62;;;;;;;10.53;90.56;98446.45;1720387;82;20973;-57
2022/01/01 08:48:11;;;;;;;3.90;2.00;;;;;;;10.56;90.51;98447.27;1757839;80;21007;-57
2022/01/01 08:50:38;;;;;;;3.85;2.90;;;;;;;10.55;90.27;98442.92;1749391;80;21352;-57
2022/01/01 08:53:05;;;;;;;5.28;3.45;;;;;;;10.55;90.20;98443.73;1700461;81;21472;-58
2022/01/01 08:55:32;;;;;;;8.40;4.62;;;;;;;10.55;90.32;98447.80;1720134;83;21045;-58
2022/01/01 08:57:59;;;;;;;16.10;9.10;;;;;;;10.55;90.45;98449.70;1734946;82;21441;-58
2022/01/01 09:00:26;;;;;;;15.03;8.55;;;;;;;10.56;90.37;98454.03;1751835;80;21002;-58
2022/01/01 09:02:53;;;;;;;16.15;10.05;;;;;;;10.55;90.49;98455.94;1746932;81;21408;-58
2022/01/01 09:05:20;;;;;;;32.10;16.40;;;;;;;10.53;90.65;98460.00;1743887;82;20997;-58
2022/01/01 09:07:47;;;;;;;12.90;7.33;;;;;;;10.53;90.77;98468.94;1736717;82;20977;-57
2022/01/01 09:10:15;;;;;;;8.43;5.78;;;;;;;10.52;90.92;98470.57;1736453;81;21033;-57
2022/01/01 09:12:42;;;;;;;7.62;5.95;;;;;;;10.51;90.69;98467.56;1725532;82;21024;-58
2022/01/01 09:15:09;;;;;;;4.45;2.83;;;;;;;10.48;91.32;98477.05;1727697;82;22082;-57
2022/01/01 09:17:36;;;;;;;4.95;3.50;;;;;;;10.50;91.17;98470.81;1720621;82;20973;-58
2022/01/01 09:20:04;;;;;;;5.72;4.22;;;;;;;10.46;91.37;98464.31;1717745;83;20984;-58
2022/01/01 09:22:31;;;;;;;11.50;8.00;;;;;;;10.46;91.33;98467.03;1717920;83;21429;-58
2022/01/01 09:24:58;;;;;;;9.35;6.37;;;;;;;10.49;91.55;98461.06;1717933;83;21012;-58
2022/01/01 09:27:25;;;;;;;4.58;3.40;;;;;;;10.52;91.37;98484.12;1720482;82;21350;-57
2022/01/01 09:29:52;;;;;;;9.90;6.08;;;;;;;10.51;91.41;98480.59;1717792;83;21392;-58
2022/01/01 09:32:20;;;;;;;7.28;5.67;;;;;;;10.49;91.48;98484.09;1717689;83;21000;-57
2022/01/01 09:34:47;;;;;;;8.53;3.70;;;;;;;10.48;91.80;98489.78;1717927;83;21009;-57
2022/01/01 09:37:14;;;;;;;5.55;3.00;;;;;;;10.46;91.59;98490.05;1730635;81;21024;-58
2022/01/01 09:39:41;;;;;;;5.67;3.72;;;;;;;10.45;91.65;98490.59;1736706;82;21379;-58
2022/01/01 09:42:10;;;;;;;6.03;3.72;;;;;;;10.49;91.65;98485.45;1736433;82;20930;-57
2022/01/01 09:44:37;;;;;;;7.47;4.70;;;;;;;10.52;91.61;98484.12;1731066;82;21392;-57
2022/01/01 09:47:04;;;;;;;7.95;5.30;;;;;;;10.55;91.48;98490.34;1749899;80;21051;-57
2022/01/01 09:49:30;;;;;;;5.87;2.98;;;;;;;10.56;91.60;98494.14;1747081;81;21123;-57
2022/01/01 09:51:57;;;;;;;7.45;4.28;;;;;;;10.61;91.56;98487.38;1742691;80;21362;-58
2022/01/01 09:54:24;;;;;;;3.62;2.52;;;;;;;10.62;91.42;98492.27;1716903;83;20969;-57
2022/01/01 09:56:51;;;;;;;5.35;2.85;;;;;;;10.64;91.48;98492.80;1723098;83;21429;-57
2022/01/01 09:59:18;;;;;;;4.97;2.98;;;;;;;10.66;91.23;98498.22;1722001;83;20996;-57
2022/01/01 10:01:45;;;;;;;7.05;4.45;;;;;;;10.64;91.23;98504.45;1723429;83;21024;-58
2022/01/01 10:04:15;;;;;;;6.22;2.83;;;;;;;10.65;90.87;98508.79;1749898;81;21288;-58
2022/01/01 10:06:42;;;;;;;7.03;3.95;;;;;;;10.70;90.60;98510.17;1753234;80;21444;-58
2022/01/01 10:09:09;;;;;;;9.60;6.20;;;;;;;10.53;90.62;98507.42;1745887;81;21028;-58
2022/01/01 10:11:36;;;;;;;8.98;6.35;;;;;;;10.55;90.86;98510.13;1743950;81;20969;-57
2022/01/01 10:14:06;;;;;;;6.05;4.03;;;;;;;10.55;90.81;98517.44;1775807;80;21016;-57
2022/01/01 10:16:44;;;;;;;5.70;3.98;;;;;;;10.53;90.82;98529.91;1753397;80;21428;-57
2022/01/01 10:19:11;;;;;;;7.00;4.05;;;;;;;10.54;90.62;98515.28;1778238;80;21049;-58
2022/01/01 10:21:41;;;;;;;7.72;4.40;;;;;;;10.50;90.72;98518.23;1763762;80;21454;-57
2022/01/01 10:24:13;;;;;;;9.33;7.05;;;;;;;10.52;90.83;98515.28;1777846;80;20978;-57
2022/01/01 10:29:27;;;;;;;7.47;4.58;;;;;;;10.54;90.41;98522.05;1740634;81;21535;-57
2022/01/01 10:32:04;;;;;;;6.70;4.08;;;;;;;10.55;90.70;98517.44;1745885;80;21050;-58
2022/01/01 10:34:33;;;;;;;7.53;4.78;;;;;;;10.61;90.49;98513.67;1740655;82;21182;-57
2022/01/01 10:37:01;;;;;;;8.23;4.95;;;;;;;10.57;90.68;98516.09;1746844;80;21023;-58
2022/01/01 10:39:28;;;;;;;6.22;4.00;;;;;;;10.52;90.81;98516.09;1740997;81;21017;-57
2022/01/01 10:41:59;;;;;;;6.50;4.67;;;;;;;10.39;91.70;98513.33;1746524;80;21321;-57
2022/01/01 10:44:33;;;;;;;5.12;3.60;;;;;;;10.37;91.28;98508.73;1720821;82;21017;-57
2022/01/01 10:47:24;;;;;;;4.35;3.10;;;;;;;10.36;91.27;98513.06;1746885;81;21043;-57
2022/01/01 10:52:28;;;;;;;6.25;3.40;;;;;;;10.32;91.41;98516.02;1747905;80;21438;-58
2022/01/01 10:55:06;;;;;;;9.23;5.78;;;;;;;10.28;92.14;98522.52;1740296;81;21378;-57
2022/01/01 10:57:37;;;;;;;53.43;27.90;;;;;;;10.29;92.08;98524.68;1740989;81;21046;-57
2022/01/01 11:00:20;;;;;;;8.35;5.10;;;;;;;10.30;91.90;98516.28;1740581;81;21189;-58
2022/01/01 11:02:58;;;;;;;39.15;22.35;;;;;;;10.24;92.59;98524.10;1746505;80;20940;-57
2022/01/01 11:05:33;;;;;;;22.87;11.60;;;;;;;10.27;92.22;98522.78;1720909;82;20989;-57
2022/01/01 11:08:01;;;;;;;14.60;8.88;;;;;;;10.28;92.21;98526.58;1746373;82;22205;-57
2022/01/01 11:10:28;;;;;;;16.57;10.30;;;;;;;10.27;92.15;98523.59;1744813;81;21080;-57
2022/01/01 11:12:56;;;;;;;22.25;12.68;;;;;;;10.32;91.88;98516.83;1769905;80;21009;-57
2022/01/01 11:15:23;;;;;;;20.15;11.33;;;;;;;10.33;91.82;98518.45;1763993;80;21071;-57
2022/01/01 11:17:50;;;;;;;12.00;6.58;;;;;;;10.35;91.52;98510.89;1761517;80;20973;-58
2022/01/01 11:20:18;;;;;;;17.37;10.00;;;;;;;10.31;91.18;98511.68;1748038;80;21398;-57
2022/01/01 11:22:45;;;;;;;13.55;8.03;;;;;;;10.37;91.43;98512.79;1755246;80;21414;-57
2022/01/01 11:25:12;;;;;;;20.52;10.00;;;;;;;10.41;91.56;98511.70;1740481;82;20984;-57
2022/01/01 11:27:39;;;;;;;24.92;11.22;;;;;;;10.38;91.70;98511.70;1761476;80;20958;-57
2022/01/01 11:30:08;;;;;;;24.27;10.90;;;;;;;10.45;91.49;98504.69;1777878;80;21010;-57
2022/01/01 11:32:43;;;;;;;;;;;;;;;10.37;91.53;98504.66;1754808;80;21753;-58
2022/01/01 11:35:22;;;;;;;8.35;5.70;;;;;;;10.31;91.72;98503.55;1718877;82;20670;-58
2022/01/01 11:38:03;;;;;;;9.35;5.95;;;;;;;10.32;91.66;98498.41;1747056;81;21421;-57
2022/01/01 11:40:55;;;;;;;7.15;4.55;;;;;;;10.32;91.62;98499.22;1720024;82;20997;-58